Time;durP1;ratioP1;P1;durP2;ratioP2;P2;SDS_P1;SDS_P2;PMS_P1;PMS_P2;Temp;Humidity;BMP_temperature;BMP_pressure;BME280_temperature;BME280_humidity;BME280_pressure;Samples;Min_cycle;Max_cycle;Signal;HPM_P1;HPM_P2
2022/01/19 00:01:00;;;;;;;9.90;5.25;;;-2.50;99.90;;;;;;5109334;28;20230;-79
2022/01/19 00:03:26;;;;;;;11.95;5.47;;;-2.50;99.90;;;;;;5091195;28;20168;-79
2022/01/19 00:05:52;;;;;;;12.15;6.40;;;-2.50;99.90;;;;;;5091272;28;20193;-78
2022/01/19 00:08:21;;;;;;;9.50;6.18;;;-2.50;99.90;;;;;;5091351;28;20171;-78
2022/01/19 00:10:49;;;;;;;10.30;5.05;;;-2.50;99.90;;;;;;5091326;28;20198;-78
2022/01/19 00:13:17;;;;;;;9.68;5.03;;;-2.50;99.90;;;;;;5109552;28;20187;-78
2022/01/19 00:15:43;;;;;;;9.20;4.80;;;-2.60;99.90;;;;;;5109404;28;20186;-78
2022/01/19 00:18:09;;;;;;;17.45;6.43;;;-2.50;99.90;;;;;;5118515;28;20212;-78
2022/01/19 00:20:36;;;;;;;7.55;4.25;;;-2.50;99.90;;;;;;5127781;28;20569;-78
2022/01/19 00:23:04;;;;;;;12.70;4.97;;;-2.40;99.90;;;;;;5129749;28;20771;-77
2022/01/19 00:25:31;;;;;;;12.65;5.20;;;-2.50;99.90;;;;;;5115912;28;20170;-78
2022/01/19 00:27:58;;;;;;;11.23;4.85;;;-2.60;99.90;;;;;;5129770;28;20151;-77
2022/01/19 00:30:26;;;;;;;16.70;5.40;;;-2.60;99.90;;;;;;5129676;28;20194;-78
2022/01/19 00:32:52;;;;;;;10.55;5.38;;;-2.70;99.90;;;;;;5129678;28;20198;-77
2022/01/19 00:35:18;;;;;;;7.88;5.18;;;-2.70;99.90;;;;;;5111329;28;20163;-77
2022/01/19 00:37:44;;;;;;;11.35;5.25;;;-2.70;99.90;;;;;;5111105;28;20170;-77
2022/01/19 00:40:14;;;;;;;13.00;5.28;;;-2.60;99.90;;;;;;5111066;28;20178;-77
2022/01/19 00:42:44;;;;;;;7.53;5.43;;;-2.60;99.90;;;;;;5111995;28;20170;-77
2022/01/19 00:45:12;;;;;;;7.30;4.05;;;-2.60;99.90;;;;;;5133844;28;20162;-77
2022/01/19 00:47:39;;;;;;;10.63;4.35;;;-2.70;99.90;;;;;;5115382;28;20174;-78
2022/01/19 00:50:07;;;;;;;9.15;6.82;;;-2.80;99.90;;;;;;5133649;28;20151;-78
2022/01/19 00:52:35;;;;;;;12.50;5.95;;;-2.80;99.90;;;;;;5115172;28;20248;-78
2022/01/19 00:55:06;;;;;;;11.52;4.70;;;-2.70;99.90;;;;;;5133622;28;20162;-77
2022/01/19 00:57:32;;;;;;;10.32;5.00;;;-2.80;99.90;;;;;;5115079;28;20175;-78
2022/01/19 00:59:58;;;;;;;11.73;5.10;;;-2.80;99.90;;;;;;5133268;28;20248;-78
2022/01/19 01:02:25;;;;;;;11.25;4.68;;;-2.90;99.90;;;;;;5133362;28;20182;-78
2022/01/19 01:04:51;;;;;;;12.68;3.95;;;-2.90;99.90;;;;;;5133387;28;20155;-78
2022/01/19 01:07:17;;;;;;;11.40;4.45;;;-3.00;99.90;;;;;;5133310;28;20154;-77
2022/01/19 01:09:43;;;;;;;15.85;5.93;;;-2.90;99.90;;;;;;5133316;28;20162;-77
2022/01/19 01:12:19;;;;;;;13.60;5.25;;;-2.90;99.90;;;;;;5133082;28;20255;-78
2022/01/19 01:20:16;;;;;;;8.85;4.00;;;-2.90;99.90;;;;;;5112760;28;20186;-77
2022/01/19 01:22:43;;;;;;;9.30;5.20;;;-3.00;99.90;;;;;;5119652;28;20186;-77
2022/01/19 01:25:10;;;;;;;11.07;4.75;;;-3.00;99.90;;;;;;5114711;28;20163;-77
2022/01/19 01:27:35;;;;;;;14.45;5.25;;;-3.10;99.90;;;;;;5124533;28;20239;-77
2022/01/19 01:30:01;;;;;;;7.30;5.03;;;-2.90;99.90;;;;;;5112610;28;20163;-77
2022/01/19 01:32:27;;;;;;;6.95;4.60;;;-2.80;99.90;;;;;;5112383;28;20202;-77
2022/01/19 01:34:53;;;;;;;8.82;4.13;;;-2.70;99.90;;;;;;5112275;28;20186;-77
2022/01/19 01:37:20;;;;;;;9.25;4.40;;;-2.80;99.90;;;;;;5094000;28;20203;-77
2022/01/19 01:39:46;;;;;;;10.65;5.35;;;-2.90;99.90;;;;;;5112350;28;20156;-77
2022/01/19 01:42:15;;;;;;;12.15;4.75;;;-2.80;99.90;;;;;;5113675;28;20198;-77
2022/01/19 01:44:45;;;;;;;4.55;3.88;;;-2.80;99.90;;;;;;5132649;28;20181;-77
2022/01/19 01:47:13;;;;;;;16.00;4.88;;;-2.80;99.90;;;;;;5132681;28;20215;-77
2022/01/19 01:53:26;;;;;;;6.00;3.63;;;-2.80;99.90;;;;;;5132519;28;20236;-77
2022/01/19 01:55:20;;;;;;;11.27;4.90;;;-2.90;99.90;;;;;;5131394;28;20166;-77
2022/01/19 01:57:47;;;;;;;9.80;4.85;;;-2.90;99.90;;;;;;5132373;28;20151;-77
2022/01/19 02:00:16;;;;;;;10.30;4.07;;;-3.00;99.90;;;;;;5113699;28;20251;-77
2022/01/19 02:02:42;;;;;;;8.15;3.90;;;-3.10;99.90;;;;;;5113837;28;20206;-77
2022/01/19 02:05:10;;;;;;;10.05;4.70;;;-3.20;99.90;;;;;;5132342;28;20165;-77
2022/01/19 02:07:49;;;;;;;8.45;4.43;;;-3.20;99.90;;;;;;5132198;28;20549;-77
2022/01/19 02:10:45;;;;;;;7.30;4.47;;;-3.20;99.90;;;;;;5113692;28;20224;-77
2022/01/19 02:23:56;;;;;;;7.13;3.45;;;-3.30;99.90;;;;;;5132048;28;20246;-79
2022/01/19 02:26:44;;;;;;;6.32;3.67;;;-3.30;99.90;;;;;;5113444;28;20170;-79
2022/01/19 02:30:05;;;;;;;9.40;4.43;;;-3.30;99.90;;;;;;5131850;28;20649;-77
2022/01/19 02:40:27;;;;;;;11.23;4.18;;;-3.50;99.90;;;;;;5131506;28;20300;-81
2022/01/19 02:51:17;;;;;;;9.40;4.82;;;-3.60;99.90;;;;;;5126016;28;20705;-78
2022/01/19 02:53:44;;;;;;;12.98;4.43;;;-3.60;99.90;;;;;;5131198;28;20179;-78
2022/01/19 02:56:16;;;;;;;9.88;5.15;;;-3.40;99.90;;;;;;5130019;28;20166;-79
2022/01/19 02:58:50;;;;;;;8.23;4.82;;;-3.20;99.90;;;;;;5129852;28;20174;-78
2022/01/19 03:09:23;;;;;;;9.23;4.25;;;-2.80;99.90;;;;;;5130969;28;20193;-79
2022/01/19 03:11:49;;;;;;;8.10;4.30;;;-2.90;99.90;;;;;;5129559;28;20194;-79
2022/01/19 03:14:17;;;;;;;9.70;4.60;;;-3.00;99.90;;;;;;5130905;28;20208;-79
2022/01/19 03:16:43;;;;;;;7.93;5.40;;;-2.70;99.90;;;;;;5129558;28;20220;-78
2022/01/19 03:19:11;;;;;;;10.27;5.18;;;-2.60;99.90;;;;;;5129431;28;20163;-79
2022/01/19 03:21:38;;;;;;;11.88;5.20;;;-2.60;99.90;;;;;;5130706;28;20259;-77
2022/01/19 03:24:05;;;;;;;7.55;4.65;;;-2.70;99.90;;;;;;5130720;28;20147;-79
2022/01/19 03:26:32;;;;;;;10.82;5.35;;;-2.90;99.90;;;;;;5130744;28;20161;-80
2022/01/19 03:28:58;;;;;;;5.32;3.97;;;-3.00;99.90;;;;;;5129429;28;20204;-79
2022/01/19 03:31:24;;;;;;;9.95;4.80;;;-3.20;99.90;;;;;;5130435;28;20258;-78
2022/01/19 03:33:50;;;;;;;8.75;4.75;;;-3.20;99.90;;;;;;5128988;28;20258;-78
2022/01/19 03:36:17;;;;;;;8.05;4.75;;;-3.10;99.90;;;;;;5129073;28;20608;-78
2022/01/19 03:38:44;;;;;;;9.38;4.95;;;-3.10;99.90;;;;;;5130279;28;20151;-79
2022/01/19 03:41:10;;;;;;;9.45;4.40;;;-3.00;99.90;;;;;;5130163;28;20183;-79
2022/01/19 03:43:36;;;;;;;8.75;4.75;;;-3.10;99.90;;;;;;5130268;28;20162;-79
2022/01/19 03:46:05;;;;;;;9.02;4.55;;;-3.20;99.90;;;;;;5130201;28;20155;-79
2022/01/19 03:49:10;;;;;;;11.35;5.30;;;-3.20;99.90;;;;;;5130155;28;20177;-79
2022/01/19 03:51:24;;;;;;;9.65;5.75;;;-3.30;99.90;;;;;;5125835;28;20275;-78
2022/01/19 03:53:51;;;;;;;9.95;4.32;;;-3.20;99.90;;;;;;5128855;28;20228;-78
2022/01/19 03:56:17;;;;;;;7.40;5.40;;;-3.20;99.90;;;;;;5129851;28;20158;-77
2022/01/19 03:58:44;;;;;;;11.45;4.15;;;-3.30;99.90;;;;;;5128661;28;20166;-78
2022/01/19 04:01:10;;;;;;;12.50;6.65;;;-3.40;99.90;;;;;;5150444;27;20202;-79
2022/01/19 04:06:25;;;;;;;18.23;5.65;;;-3.60;99.90;;;;;;5150613;27;20162;-80
2022/01/19 04:08:52;;;;;;;10.77;4.20;;;-3.60;99.90;;;;;;5150251;27;20361;-79
2022/01/19 04:11:20;;;;;;;9.18;4.80;;;-3.70;99.90;;;;;;5150417;27;20217;-80
2022/01/19 04:14:21;;;;;;;7.50;3.92;;;-3.70;99.90;;;;;;5131844;28;20201;-79
2022/01/19 04:16:44;;;;;;;8.90;4.10;;;-3.70;99.90;;;;;;5149982;27;20170;-79
2022/01/19 04:19:32;;;;;;;8.20;4.60;;;-3.70;99.90;;;;;;5149702;27;20177;-79
2022/01/19 04:22:04;;;;;;;11.32;4.15;;;-3.80;99.90;;;;;;5150261;27;20212;-80
2022/01/19 04:24:31;;;;;;;10.65;5.00;;;-3.90;99.90;;;;;;5150259;28;20173;-80
2022/01/19 04:27:44;;;;;;;11.32;5.20;;;-3.90;99.90;;;;;;5150238;28;20158;-78
2022/01/19 04:29:59;;;;;;;9.73;4.47;;;-3.90;99.90;;;;;;5135457;28;20212;-79
2022/01/19 04:32:52;;;;;;;16.27;5.65;;;-4.00;99.90;;;;;;5149985;28;20190;-80
2022/01/19 04:35:16;;;;;;;10.02;4.88;;;-3.90;99.90;;;;;;5149515;28;20186;-79
2022/01/19 05:05:04;;;;;;;12.93;5.97;;;-4.10;99.90;;;;;;5149904;28;20175;-79
2022/01/19 05:07:38;;;;;;;6.13;3.92;;;-4.10;99.90;;;;;;5149858;28;20210;-78
2022/01/19 05:13:25;;;;;;;9.60;5.90;;;-4.00;99.90;;;;;;5149730;28;20162;-79
2022/01/19 05:15:54;;;;;;;8.27;4.78;;;-3.90;99.90;;;;;;5066130;28;20259;-79
2022/01/19 05:18:20;;;;;;;9.52;5.25;;;-3.70;99.90;;;;;;5066012;28;20746;-78
2022/01/19 05:20:47;;;;;;;8.88;5.15;;;-3.50;99.90;;;;;;5049446;28;20212;-79
2022/01/19 05:23:17;;;;;;;11.07;4.82;;;-3.50;99.90;;;;;;5049341;28;20256;-79
2022/01/19 05:25:44;;;;;;;6.28;4.63;;;-3.50;99.90;;;;;;5066497;28;20188;-80
2022/01/19 05:28:11;;;;;;;7.57;4.47;;;-3.50;99.90;;;;;;5049463;28;20168;-79
2022/01/19 05:30:37;;;;;;;12.63;4.78;;;-3.70;99.90;;;;;;5069555;28;20212;-80
2022/01/19 05:33:02;;;;;;;6.72;4.53;;;-3.80;99.90;;;;;;5053015;28;20672;-78
2022/01/19 05:35:30;;;;;;;11.23;4.90;;;-3.80;99.90;;;;;;5069753;28;20179;-77
2022/01/19 05:37:56;;;;;;;10.00;5.50;;;-3.70;99.90;;;;;;5069538;28;20238;-79
2022/01/19 05:40:23;;;;;;;6.57;3.92;;;-3.50;99.90;;;;;;5069344;28;20664;-78
2022/01/19 05:42:49;;;;;;;7.13;4.60;;;-3.50;99.90;;;;;;5069184;28;20184;-79
2022/01/19 05:45:17;;;;;;;11.57;5.47;;;-3.50;99.90;;;;;;5069415;28;20165;-77
2022/01/19 05:47:45;;;;;;;7.47;4.85;;;-3.60;99.90;;;;;;5069186;28;20176;-77
2022/01/19 05:50:13;;;;;;;13.40;4.63;;;-3.60;99.90;;;;;;5105628;27;20196;-78
2022/01/19 05:52:38;;;;;;;13.05;5.50;;;-3.70;99.90;;;;;;5152532;27;20189;-78
2022/01/19 05:55:05;;;;;;;11.13;5.32;;;-3.90;99.90;;;;;;5152527;27;20158;-79
2022/01/19 05:57:32;;;;;;;7.97;4.90;;;-4.00;99.90;;;;;;5133936;27;20189;-80
2022/01/19 05:59:58;;;;;;;9.55;5.00;;;-4.00;99.90;;;;;;5152481;27;20581;-79
2022/01/19 06:02:24;;;;;;;8.52;4.30;;;-4.10;99.90;;;;;;5152352;27;20211;-80
2022/01/19 06:04:50;;;;;;;12.73;5.05;;;-4.00;99.90;;;;;;5152528;27;20158;-80
2022/01/19 06:07:16;;;;;;;15.60;5.95;;;-4.10;99.90;;;;;;5133876;27;20166;-80
2022/01/19 06:12:11;;;;;;;12.63;5.50;;;-4.00;99.90;;;;;;5152210;27;20269;-80
2022/01/19 06:14:39;;;;;;;9.75;5.72;;;-4.00;99.90;;;;;;5152070;27;20281;-79
2022/01/19 06:17:07;;;;;;;9.90;4.78;;;-4.00;99.90;;;;;;5151944;27;20154;-80
2022/01/19 06:19:34;;;;;;;9.60;4.63;;;-4.10;99.90;;;;;;5133194;27;20169;-80
2022/01/19 06:22:00;;;;;;;12.88;5.22;;;-4.10;99.90;;;;;;5152195;27;20205;-80
2022/01/19 06:24:27;;;;;;;12.35;4.75;;;-4.20;99.90;;;;;;5133531;27;20176;-80
2022/01/19 06:26:54;;;;;;;11.68;3.80;;;-4.20;99.90;;;;;;5151943;27;20173;-79
2022/01/19 06:29:21;;;;;;;13.68;3.58;;;-4.30;99.90;;;;;;5133164;27;20181;-80
2022/01/19 06:31:48;;;;;;;11.50;6.25;;;-4.20;99.90;;;;;;5151822;27;20210;-79
2022/01/19 06:34:14;;;;;;;12.25;6.85;;;-4.20;99.90;;;;;;5132966;27;20221;-81
2022/01/19 06:36:40;;;;;;;16.05;6.95;;;-4.00;99.90;;;;;;5151600;27;20154;-80
2022/01/19 06:39:06;;;;;;;11.77;6.05;;;-3.90;99.90;;;;;;5151757;27;20179;-79
2022/01/19 06:41:32;;;;;;;16.15;5.68;;;-3.90;99.90;;;;;;5151136;27;20291;-80
2022/01/19 06:43:58;;;;;;;10.93;5.80;;;-3.80;99.90;;;;;;5133088;27;20259;-82
2022/01/19 06:46:24;;;;;;;10.73;6.85;;;-3.70;99.90;;;;;;5151818;27;20166;-80
2022/01/19 06:48:50;;;;;;;14.27;8.15;;;-3.60;99.90;;;;;;5151654;27;20158;-80
2022/01/19 06:51:16;;;;;;;19.33;6.30;;;-3.50;99.90;;;;;;5132525;27;20198;-80
2022/01/19 06:53:42;;;;;;;15.50;6.10;;;-3.40;99.90;;;;;;5132920;27;20210;-79
2022/01/19 06:56:08;;;;;;;10.23;5.65;;;-3.30;99.90;;;;;;5133113;27;20166;-80
2022/01/19 06:58:34;;;;;;;22.70;6.68;;;-3.30;99.90;;;;;;5151585;27;20154;-80
2022/01/19 07:01:00;;;;;;;10.52;5.75;;;-3.40;99.90;;;;;;5124121;28;20228;-80
2022/01/19 07:03:26;;;;;;;9.15;5.50;;;-3.50;99.90;;;;;;5110584;28;20194;-79
2022/01/19 07:05:52;;;;;;;9.57;5.53;;;-3.60;99.90;;;;;;5129552;28;20596;-79
2022/01/19 07:08:17;;;;;;;15.02;7.85;;;-3.60;99.90;;;;;;5111045;28;20167;-79
2022/01/19 07:10:43;;;;;;;10.00;6.22;;;-3.60;99.90;;;;;;5110650;28;20202;-79
2022/01/19 07:13:09;;;;;;;14.68;5.97;;;-3.70;99.90;;;;;;5129120;28;20183;-79
2022/01/19 07:15:36;;;;;;;13.60;5.88;;;-3.70;99.90;;;;;;5128990;28;20566;-79
2022/01/19 07:18:03;;;;;;;14.63;6.47;;;-3.60;99.90;;;;;;5128849;28;20646;-80
2022/01/19 07:20:30;;;;;;;14.52;6.88;;;-3.60;99.90;;;;;;5129945;28;20539;-80
2022/01/19 07:22:57;;;;;;;12.18;6.32;;;-3.40;99.90;;;;;;5129718;28;20167;-79
2022/01/19 07:25:23;;;;;;;12.63;5.78;;;-3.20;99.90;;;;;;5111988;28;20185;-79
2022/01/19 07:27:49;;;;;;;11.48;6.43;;;-3.00;99.90;;;;;;5111698;28;20228;-79
2022/01/19 07:30:15;;;;;;;12.25;6.20;;;-2.90;99.90;;;;;;5128745;28;20178;-80
2022/01/19 07:32:42;;;;;;;13.77;5.85;;;-2.90;99.90;;;;;;5130013;28;20192;-79
2022/01/19 07:35:09;;;;;;;17.92;7.30;;;-2.80;99.90;;;;;;5129907;28;20148;-79
2022/01/19 07:37:35;;;;;;;11.80;6.53;;;-2.60;99.90;;;;;;5111585;28;20170;-78
2022/01/19 07:40:01;;;;;;;11.30;5.93;;;-2.50;99.90;;;;;;5111220;28;20170;-79
2022/01/19 07:42:27;;;;;;;22.02;6.18;;;-2.30;99.90;;;;;;5109701;28;20258;-77
2022/01/19 07:44:54;;;;;;;9.55;5.63;;;-2.10;99.90;;;;;;5109835;28;20163;-77
2022/01/19 07:47:20;;;;;;;21.73;8.10;;;-2.00;99.90;;;;;;5110002;28;20189;-78
2022/01/19 07:49:46;;;;;;;9.23;4.80;;;-2.00;99.90;;;;;;5137351;27;20196;-79
2022/01/19 07:52:13;;;;;;;15.23;6.25;;;-1.90;99.90;;;;;;5130955;28;20289;-78
2022/01/19 07:54:39;;;;;;;14.23;6.28;;;-1.80;99.90;;;;;;5150356;27;20188;-78
2022/01/19 07:57:06;;;;;;;15.15;6.93;;;-1.60;99.90;;;;;;5150276;27;20183;-79
2022/01/19 07:59:32;;;;;;;11.15;8.45;;;-1.50;99.90;;;;;;5131763;27;20716;-79
2022/01/19 08:01:58;;;;;;;15.82;7.75;;;-1.30;99.90;;;;;;5150100;27;20280;-76
2022/01/19 08:04:24;;;;;;;12.90;7.18;;;-1.10;99.90;;;;;;5110741;28;20195;-80
2022/01/19 08:06:54;;;;;;;8.93;4.97;;;-0.90;99.90;;;;;;5128106;28;20578;-80
2022/01/19 08:09:25;;;;;;;12.73;5.18;;;-0.90;99.90;;;;;;5111162;28;20178;-79
2022/01/19 08:11:51;;;;;;;10.57;6.07;;;-0.60;99.90;;;;;;5114711;28;20198;-79
2022/01/19 08:14:18;;;;;;;12.60;6.45;;;-0.50;99.90;;;;;;5116263;28;20213;-78
2022/01/19 08:16:44;;;;;;;10.98;5.97;;;-0.30;99.90;;;;;;5113249;28;20171;-79
2022/01/19 08:19:10;;;;;;;7.60;5.28;;;-0.30;99.90;;;;;;5109028;28;20159;-79
2022/01/19 08:21:36;;;;;;;12.20;6.20;;;-0.20;99.90;;;;;;5095852;28;20202;-80
2022/01/19 08:24:02;;;;;;;15.95;7.68;;;0.10;99.90;;;;;;5129084;28;20169;-78
2022/01/19 08:26:28;;;;;;;28.23;15.65;;;1.70;99.90;;;;;;5106365;28;20183;-79
2022/01/19 08:28:54;;;;;;;36.70;19.23;;;5.10;99.90;;;;;;5108992;28;20201;-80
2022/01/19 08:31:20;;;;;;;29.55;18.45;;;6.80;99.90;;;;;;5109028;28;20189;-81
2022/01/19 08:33:46;;;;;;;27.35;14.73;;;8.30;99.90;;;;;;5113787;28;20662;-80
2022/01/19 08:36:14;;;;;;;17.05;9.15;;;9.50;99.90;;;;;;5128832;28;20194;-80
2022/01/19 08:38:41;;;;;;;13.82;7.22;;;9.70;99.90;;;;;;5129237;28;20163;-80
2022/01/19 08:41:07;;;;;;;10.80;5.82;;;8.70;99.90;;;;;;5129290;28;20151;-79
2022/01/19 08:43:33;;;;;;;8.68;5.13;;;9.00;99.90;;;;;;5127954;28;20169;-80
2022/01/19 08:45:59;;;;;;;10.65;4.95;;;9.60;99.90;;;;;;5129347;28;20182;-79
2022/01/19 08:48:27;;;;;;;9.65;5.20;;;9.80;99.90;;;;;;5128013;28;20169;-80
2022/01/19 08:50:54;;;;;;;8.13;4.65;;;9.80;99.90;;;;;;5127990;28;20163;-79
2022/01/19 08:53:21;;;;;;;7.00;4.72;;;9.70;99.90;;;;;;5129026;28;20210;-79
2022/01/19 08:55:48;;;;;;;9.20;4.78;;;9.60;99.90;;;;;;5110827;28;20682;-79
2022/01/19 08:58:14;;;;;;;9.20;4.43;;;9.90;99.90;;;;;;5127760;28;20189;-79
2022/01/19 09:00:44;;;;;;;12.82;5.75;;;10.30;99.90;;;;;;5128936;28;20214;-81
2022/01/19 09:03:11;;;;;;;11.20;4.85;;;10.10;99.90;;;;;;5129059;28;20180;-79
2022/01/19 09:05:37;;;;;;;11.57;5.03;;;9.50;99.90;;;;;;5132815;28;20194;-79
2022/01/19 09:08:04;;;;;;;11.82;5.20;;;9.30;99.90;;;;;;5133207;28;20166;-78
2022/01/19 09:10:31;;;;;;;8.30;4.78;;;9.00;99.90;;;;;;5131742;28;20171;-79
2022/01/19 09:12:56;;;;;;;15.52;5.80;;;9.00;99.90;;;;;;5133039;28;20212;-79
2022/01/19 09:15:23;;;;;;;6.80;4.40;;;8.80;99.90;;;;;;5132681;28;20194;-78
2022/01/19 09:17:50;;;;;;;12.35;5.97;;;9.50;99.90;;;;;;5131537;28;20188;-78
2022/01/19 09:20:16;;;;;;;7.40;4.95;;;9.50;99.90;;;;;;5133006;28;20155;-79
2022/01/19 09:22:43;;;;;;;12.73;4.97;;;9.40;99.90;;;;;;5129741;28;20198;-78
2022/01/19 09:25:10;;;;;;;10.05;5.20;;;9.60;99.90;;;;;;5121553;28;20286;-79
2022/01/19 09:27:38;;;;;;;13.88;5.90;;;9.10;99.90;;;;;;5119609;28;20196;-79
2022/01/19 09:30:16;;;;;;;9.98;5.93;;;8.80;99.90;;;;;;5132675;28;20154;-78
2022/01/19 09:32:45;;;;;;;11.73;6.93;;;8.90;99.90;;;;;;5115288;28;20175;-78
2022/01/19 09:35:22;;;;;;;20.88;8.48;;;9.60;99.90;;;;;;5112072;28;20191;-78
2022/01/19 09:37:47;;;;;;;15.98;7.78;;;9.30;99.90;;;;;;5112059;28;20223;-78
2022/01/19 09:40:13;;;;;;;20.52;8.10;;;9.20;99.90;;;;;;5119381;28;20159;-78
2022/01/19 09:42:39;;;;;;;16.17;7.68;;;8.80;99.90;;;;;;5132591;28;20155;-76
2022/01/19 09:45:05;;;;;;;15.02;5.65;;;8.60;99.90;;;;;;5132293;28;20541;-77
2022/01/19 09:47:31;;;;;;;18.67;7.55;;;8.50;99.90;;;;;;5131024;28;20171;-76
2022/01/19 09:49:57;;;;;;;11.00;5.70;;;8.70;99.90;;;;;;5132216;28;20214;-78
2022/01/19 09:52:23;;;;;;;16.15;6.78;;;8.20;99.90;;;;;;5131973;28;20163;-78
2022/01/19 09:54:48;;;;;;;10.00;6.05;;;8.50;99.90;;;;;;5132125;28;20215;-78
2022/01/19 09:57:14;;;;;;;10.32;5.68;;;8.60;99.90;;;;;;5125245;28;20168;-78
2022/01/19 09:59:40;;;;;;;15.98;6.93;;;8.70;99.90;;;;;;5111634;28;20207;-78
2022/01/19 10:02:10;;;;;;;16.50;6.30;;;8.90;99.90;;;;;;5127167;28;20171;-79
2022/01/19 10:04:41;;;;;;;12.27;6.15;;;8.60;99.90;;;;;;5118389;28;20198;-78
2022/01/19 10:07:16;;;;;;;14.55;6.35;;;8.70;99.90;;;;;;5131814;28;20179;-77
2022/01/19 10:09:58;;;;;;;12.10;6.10;;;8.60;99.90;;;;;;5131762;28;20158;-78
2022/01/19 10:18:33;;;;;;;20.20;6.38;;;9.30;99.90;;;;;;5131948;28;20150;-77
2022/01/19 10:21:16;;;;;;;12.32;6.28;;;9.20;99.90;;;;;;5130399;28;20177;-78
2022/01/19 10:23:52;;;;;;;23.67;6.78;;;8.50;99.90;;;;;;5131439;28;20209;-77
2022/01/19 10:26:27;;;;;;;12.30;5.15;;;8.80;99.90;;;;;;5129182;28;20216;-78
2022/01/19 10:29:01;;;;;;;11.90;5.30;;;8.50;99.90;;;;;;5130233;28;20237;-78
2022/01/19 10:31:28;;;;;;;14.30;5.80;;;8.90;99.90;;;;;;5122588;28;20189;-78
2022/01/19 10:34:17;;;;;;;13.07;6.57;;;9.30;99.90;;;;;;5109556;28;20218;-75
2022/01/19 10:36:53;;;;;;;13.18;5.88;;;9.10;99.90;;;;;;5109502;28;20171;-79
2022/01/19 10:39:21;;;;;;;10.13;6.20;;;8.50;99.90;;;;;;5111411;27;20177;-79
2022/01/19 10:42:04;;;;;;;11.02;6.05;;;9.30;99.90;;;;;;5145953;27;20170;-80
2022/01/19 10:44:47;;;;;;;12.93;5.85;;;9.20;99.90;;;;;;5134557;27;20194;-77
2022/01/19 10:47:15;;;;;;;20.23;6.88;;;8.80;99.90;;;;;;5141612;27;20208;-77
2022/01/19 10:49:55;;;;;;;18.98;7.50;;;9.50;99.90;;;;;;5143565;27;20194;-77
2022/01/19 10:52:29;;;;;;;10.75;5.72;;;9.10;99.90;;;;;;5133223;27;20212;-79
2022/01/19 10:54:57;;;;;;;18.92;6.70;;;8.90;99.90;;;;;;5145155;27;20205;-77
2022/01/19 10:57:24;;;;;;;10.70;6.03;;;8.50;99.90;;;;;;5140883;27;20520;-77
2022/01/19 10:59:50;;;;;;;12.05;5.38;;;8.60;99.90;;;;;;5137275;27;20219;-78
2022/01/19 11:02:18;;;;;;;14.32;6.50;;;8.40;99.90;;;;;;5113487;28;20175;-78
2022/01/19 11:04:46;;;;;;;15.63;6.05;;;8.50;99.90;;;;;;5126099;28;20223;-78
2022/01/19 11:07:22;;;;;;;16.23;6.63;;;9.50;99.90;;;;;;5118372;28;20174;-80
2022/01/19 11:10:01;;;;;;;11.35;5.93;;;9.00;99.90;;;;;;5098572;28;20174;-78
2022/01/19 11:12:30;;;;;;;10.43;5.88;;;9.30;99.90;;;;;;5108359;28;20170;-80
2022/01/19 11:14:56;;;;;;;25.73;7.45;;;9.00;99.90;;;;;;5116314;28;20193;-78
2022/01/19 11:17:22;;;;;;;10.07;6.13;;;9.30;99.90;;;;;;5102159;28;20238;-77
2022/01/19 11:19:49;;;;;;;11.85;5.97;;;9.70;99.90;;;;;;5122955;28;20228;-78
2022/01/19 11:23:04;;;;;;;11.48;6.53;;;9.80;99.90;;;;;;5113291;28;20217;-79
2022/01/19 11:25:45;;;;;;;14.45;6.47;;;9.70;99.90;;;;;;5090622;28;20210;-78
2022/01/19 11:28:24;;;;;;;11.77;6.40;;;10.20;99.90;;;;;;5094990;28;20179;-81
2022/01/19 11:30:50;;;;;;;20.70;7.47;;;10.10;99.90;;;;;;5084092;28;20171;-78
2022/01/19 11:33:25;;;;;;;15.30;6.53;;;10.10;99.90;;;;;;5091507;28;20198;-79
2022/01/19 11:36:01;;;;;;;12.60;7.25;;;9.60;99.90;;;;;;5103548;28;20194;-78
2022/01/19 11:38:38;;;;;;;10.27;6.70;;;9.60;99.90;;;;;;5094775;28;20598;-76
2022/01/19 11:41:09;;;;;;;12.43;7.05;;;9.60;99.90;;;;;;5124346;28;20562;-77
2022/01/19 11:43:38;;;;;;;13.38;6.65;;;10.20;99.90;;;;;;5101048;28;20167;-76
2022/01/19 11:46:24;;;;;;;15.35;6.30;;;10.50;99.90;;;;;;5115575;28;20166;-77
2022/01/19 11:48:51;;;;;;;17.88;8.63;;;11.00;99.90;;;;;;5091148;28;20164;-77
2022/01/19 11:51:30;;;;;;;19.45;8.80;;;10.70;99.90;;;;;;5091226;28;20171;-78
2022/01/19 11:54:24;;;;;;;14.20;6.68;;;9.80;99.90;;;;;;5091026;28;20210;-78
2022/01/19 11:56:59;;;;;;;14.13;6.07;;;9.30;99.90;;;;;;5091999;28;20175;-77
2022/01/19 11:59:36;;;;;;;10.98;6.78;;;8.80;99.90;;;;;;5129741;28;20206;-77
2022/01/19 12:02:20;;;;;;;15.60;7.43;;;9.20;99.90;;;;;;5129872;28;20227;-77
2022/01/19 12:04:54;;;;;;;20.02;6.60;;;9.80;99.90;;;;;;5129350;28;20273;-77
2022/01/19 12:07:35;;;;;;;12.48;7.43;;;10.20;99.90;;;;;;5129583;28;20241;-77
2022/01/19 12:10:07;;;;;;;12.10;6.80;;;10.00;99.90;;;;;;5110613;28;20172;-76
2022/01/19 12:12:40;;;;;;;13.23;6.97;;;10.20;99.90;;;;;;5111128;28;20166;-76
2022/01/19 12:15:09;;;;;;;15.55;6.93;;;10.30;99.90;;;;;;5110932;28;20195;-76
2022/01/19 12:17:54;;;;;;;14.52;6.45;;;10.20;99.90;;;;;;5111102;28;20163;-75
2022/01/19 12:20:52;;;;;;;10.13;6.60;;;9.40;99.90;;;;;;5128885;28;20158;-75
2022/01/19 12:23:28;;;;;;;17.05;7.82;;;9.50;99.90;;;;;;5124382;28;20182;-76
2022/01/19 12:26:00;;;;;;;19.27;7.68;;;8.70;99.90;;;;;;5078890;28;20628;-75
2022/01/19 12:28:39;;;;;;;14.20;6.45;;;9.50;99.90;;;;;;5077405;28;20691;-75
2022/01/19 12:31:23;;;;;;;13.02;6.65;;;10.00;99.90;;;;;;5082488;28;20195;-77
2022/01/19 12:34:09;;;;;;;15.55;6.68;;;10.10;99.90;;;;;;5087283;28;20207;-77
2022/01/19 12:36:50;;;;;;;16.80;6.68;;;10.50;99.90;;;;;;5082911;28;20190;-75
2022/01/19 12:39:25;;;;;;;10.50;6.38;;;10.70;99.90;;;;;;5110383;28;20190;-77
2022/01/19 12:42:39;;;;;;;11.25;5.80;;;9.20;99.90;;;;;;5113036;28;20307;-77
2022/01/19 12:45:19;;;;;;;7.70;5.70;;;7.90;99.90;;;;;;5112444;28;20183;-74
2022/01/19 12:47:55;;;;;;;13.50;6.43;;;7.00;99.90;;;;;;5094441;28;20174;-76
2022/01/19 12:50:20;;;;;;;9.43;6.45;;;6.70;99.90;;;;;;5112814;28;20160;-75
2022/01/19 12:53:04;;;;;;;13.38;6.22;;;6.20;99.90;;;;;;5093983;28;20167;-76
2022/01/19 12:55:35;;;;;;;13.10;7.22;;;6.10;99.90;;;;;;5094187;28;20546;-76
2022/01/19 12:58:28;;;;;;;15.15;7.65;;;6.10;99.90;;;;;;5112693;28;20175;-75
2022/01/19 13:00:58;;;;;;;12.50;6.68;;;6.00;99.90;;;;;;5111761;28;20219;-75
2022/01/19 13:03:34;;;;;;;14.10;6.40;;;5.60;99.90;;;;;;5112644;28;20163;-76
2022/01/19 13:06:07;;;;;;;13.85;6.22;;;5.30;99.90;;;;;;5094313;28;20203;-77
2022/01/19 13:08:37;;;;;;;15.07;6.70;;;4.90;99.90;;;;;;5112248;28;20166;-76
2022/01/19 13:11:25;;;;;;;13.30;6.78;;;5.00;99.90;;;;;;5112144;28;20186;-75
2022/01/19 13:14:19;;;;;;;18.63;6.57;;;5.10;99.90;;;;;;5112085;28;20198;-75
2022/01/19 13:16:47;;;;;;;11.00;6.20;;;5.20;99.90;;;;;;5110991;28;20187;-74
2022/01/19 13:19:17;;;;;;;11.93;6.65;;;5.20;99.90;;;;;;5092946;28;20221;-74
2022/01/19 13:21:46;;;;;;;13.73;7.10;;;5.00;99.90;;;;;;5093847;28;20220;-74
2022/01/19 13:24:25;;;;;;;11.50;6.35;;;4.90;99.90;;;;;;5093741;28;20199;-74
2022/01/19 13:26:54;;;;;;;14.48;6.75;;;5.00;99.90;;;;;;5111831;28;20346;-73
2022/01/19 13:29:23;;;;;;;11.82;6.22;;;5.00;99.90;;;;;;5093708;28;20239;-74
2022/01/19 13:31:59;;;;;;;11.68;6.53;;;5.20;99.90;;;;;;5101060;28;20164;-73
2022/01/19 13:34:27;;;;;;;14.73;6.50;;;5.20;99.90;;;;;;5091426;28;20211;-74
2022/01/19 13:36:59;;;;;;;11.90;7.88;;;5.10;99.90;;;;;;5091443;28;20200;-75
2022/01/19 13:39:26;;;;;;;9.95;6.38;;;4.90;99.90;;;;;;5091587;28;20164;-74
2022/01/19 13:41:53;;;;;;;14.20;6.57;;;4.80;99.90;;;;;;5091581;28;20242;-74
2022/01/19 13:44:33;;;;;;;14.52;6.18;;;4.80;99.90;;;;;;5091374;28;20203;-74
2022/01/19 13:47:15;;;;;;;10.52;6.50;;;4.80;99.90;;;;;;5091533;28;20151;-74
2022/01/19 13:49:51;;;;;;;12.73;5.68;;;4.90;99.90;;;;;;5072631;28;20202;-74
2022/01/19 13:52:21;;;;;;;12.85;6.70;;;4.80;99.90;;;;;;5090808;28;20174;-75
2022/01/19 13:54:48;;;;;;;10.90;6.32;;;4.80;99.90;;;;;;5072976;28;20226;-74
2022/01/19 13:57:24;;;;;;;10.30;6.05;;;4.70;99.90;;;;;;5089995;28;20168;-74
2022/01/19 13:59:50;;;;;;;15.15;7.03;;;4.50;99.90;;;;;;5099813;28;20238;-74
2022/01/19 14:02:18;;;;;;;8.68;5.80;;;4.50;99.90;;;;;;5111334;28;20174;-74
2022/01/19 14:04:53;;;;;;;12.75;5.70;;;4.50;99.90;;;;;;5111187;28;20225;-75
2022/01/19 14:07:19;;;;;;;10.88;6.40;;;4.50;99.90;;;;;;5111248;28;20201;-75
2022/01/19 14:09:46;;;;;;;12.23;7.18;;;4.50;99.90;;;;;;5110078;28;20183;-75
2022/01/19 14:12:16;;;;;;;14.93;7.22;;;4.40;99.90;;;;;;5111210;28;20179;-75
2022/01/19 14:14:51;;;;;;;15.23;6.75;;;4.40;99.90;;;;;;5111074;28;20238;-75
2022/01/19 14:17:36;;;;;;;15.52;6.50;;;4.30;99.90;;;;;;5092864;28;20177;-74
2022/01/19 14:20:04;;;;;;;12.00;7.05;;;4.40;99.90;;;;;;5110979;28;20185;-74
2022/01/19 14:22:34;;;;;;;12.43;7.28;;;4.40;99.90;;;;;;5111006;28;20159;-74
2022/01/19 14:25:10;;;;;;;24.83;8.77;;;4.30;99.90;;;;;;5122397;28;20217;-74